KLTS/LTS METAR and TAF weather

Enter ICAO airport designator
Station Type Date Time Source
KLTS METAR 2019/02/23 00:26 UTC NOAA

KLTS 230026Z AUTO 10007KT 10SM BR BKN004 OVC015 08/08 A2987 RMK AO2 CIG 003 RWY35L CIG 003 RWY35R SLPNO $


Station Type Date Time Source
KLTS Decoded METAR 2019/02/23 00:26 UTC NOAA

Altus Air Force Base, OK, United States (KLTS) 34-39N 099-16W 420M
Feb 22, 2019 - 07:26 PM EST / 2019.02.23 0026 UTC
Wind: from the E (100 degrees) at 8 MPH (7 KT):0
Visibility: 10 mile(s):0
Sky conditions: overcast
Weather: mist
Temperature: 46 F (8 C)
Dew Point: 46 F (8 C)
Relative Humidity: 100%
Pressure (altimeter): 29.87 in. Hg (1011 hPa)
ob: KLTS 230026Z AUTO 10007KT 10SM BR BKN004 OVC015 08/08 A2987 RMK AO2 CIG 003 RWY35L CIG 003 RWY35R SLPNO
cycle: 0

Station Type Date Time Source
KLTS TAF 2019/02/22 21:58 UTC NOAA

TAF
AMD KLTS 222150Z 2221/2323 10009KT 9999 OVC004 QNH2989INS
BECMG 2301/2302 VRB06KT 4800 BR OVC002 QNH2975INS
BECMG 2308/2309 18010G18KT 6000 DZ OVC016 QNH2970INS
BECMG 2311/2312 23010G20KT 9999 NSW SKC QNH2965INS
BECMG 2314/2315 23035G45KT 9999 SKC 520013 QNH2965INS
BECMG 2317/2318 26040G50KT 9999 SKC 520005 QNH2967INS
BECMG 2321/2322 30025G35KT 9999 SKC 520013 QNH2966INS TX14/2317Z TN07/2308Z


Example: see airport list